sensor_id;sensor_type;location;lat;lon;timestamp;temperature;humidity
68691;DHT22;55675;49.588;8.640;2023-04-01T00:01:10;12.10;93.60
68691;DHT22;55675;49.588;8.640;2023-04-01T00:03:37;12.10;93.70
68691;DHT22;55675;49.588;8.640;2023-04-01T00:06:02;12.10;93.60
68691;DHT22;55675;49.588;8.640;2023-04-01T00:08:28;12.10;93.40
68691;DHT22;55675;49.588;8.640;2023-04-01T00:10:54;12.10;93.40
68691;DHT22;55675;49.588;8.640;2023-04-01T00:13:20;12.10;93.30
68691;DHT22;55675;49.588;8.640;2023-04-01T00:15:47;12.10;93.40
68691;DHT22;55675;49.588;8.640;2023-04-01T00:18:12;12.10;93.30
68691;DHT22;55675;49.588;8.640;2023-04-01T00:20:38;12.10;93.30
68691;DHT22;55675;49.588;8.640;2023-04-01T00:23:04;12.10;93.40
68691;DHT22;55675;49.588;8.640;2023-04-01T00:25:30;12.10;93.50
68691;DHT22;55675;49.588;8.640;2023-04-01T00:27:56;12.10;93.30
68691;DHT22;55675;49.588;8.640;2023-04-01T00:30:21;12.10;93.30
68691;DHT22;55675;49.588;8.640;2023-04-01T00:32:46;12.10;93.40
68691;DHT22;55675;49.588;8.640;2023-04-01T00:35:12;12.10;93.30
68691;DHT22;55675;49.588;8.640;2023-04-01T00:37:38;12.10;93.60
68691;DHT22;55675;49.588;8.640;2023-04-01T00:40:05;12.10;93.30
68691;DHT22;55675;49.588;8.640;2023-04-01T00:42:31;12.10;93.20
68691;DHT22;55675;49.588;8.640;2023-04-01T00:44:57;12.10;93.10
68691;DHT22;55675;49.588;8.640;2023-04-01T00:47:22;12.10;92.90
68691;DHT22;55675;49.588;8.640;2023-04-01T00:49:50;12.10;93.00
68691;DHT22;55675;49.588;8.640;2023-04-01T00:52:21;12.10;93.00
68691;DHT22;55675;49.588;8.640;2023-04-01T00:54:48;12.10;93.00
68691;DHT22;55675;49.588;8.640;2023-04-01T00:57:15;12.00;92.70
68691;DHT22;55675;49.588;8.640;2023-04-01T00:59:43;12.00;92.70
68691;DHT22;55675;49.588;8.640;2023-04-01T01:02:10;12.00;92.60
68691;DHT22;55675;49.588;8.640;2023-04-01T01:04:36;12.00;92.60
68691;DHT22;55675;49.588;8.640;2023-04-01T01:07:09;12.10;92.60
68691;DHT22;55675;49.588;8.640;2023-04-01T01:09:42;12.10;92.30
68691;DHT22;55675;49.588;8.640;2023-04-01T01:12:14;12.10;92.40
68691;DHT22;55675;49.588;8.640;2023-04-01T01:20:10;12.10;92.00
68691;DHT22;55675;49.588;8.640;2023-04-01T01:22:51;12.10;92.20
68691;DHT22;55675;49.588;8.640;2023-04-01T01:28:44;12.10;92.20
68691;DHT22;55675;49.588;8.640;2023-04-01T01:31:11;12.10;92.10
68691;DHT22;55675;49.588;8.640;2023-04-01T01:33:47;12.10;91.80
68691;DHT22;55675;49.588;8.640;2023-04-01T01:36:16;12.10;91.90
68691;DHT22;55675;49.588;8.640;2023-04-01T01:38:42;12.10;91.80
68691;DHT22;55675;49.588;8.640;2023-04-01T01:41:09;12.20;91.90
68691;DHT22;55675;49.588;8.640;2023-04-01T01:43:37;12.10;91.80
68691;DHT22;55675;49.588;8.640;2023-04-01T01:46:06;12.10;91.70
68691;DHT22;55675;49.588;8.640;2023-04-01T01:48:33;12.10;91.90
68691;DHT22;55675;49.588;8.640;2023-04-01T01:50:59;12.10;92.00
68691;DHT22;55675;49.588;8.640;2023-04-01T01:53:25;12.10;92.00
68691;DHT22;55675;49.588;8.640;2023-04-01T01:55:51;12.10;92.00
68691;DHT22;55675;49.588;8.640;2023-04-01T01:58:30;12.00;91.90
68691;DHT22;55675;49.588;8.640;2023-04-01T02:00:59;12.10;91.90
68691;DHT22;55675;49.588;8.640;2023-04-01T02:03:27;12.00;91.90
68691;DHT22;55675;49.588;8.640;2023-04-01T02:05:53;12.10;92.00
68691;DHT22;55675;49.588;8.640;2023-04-01T02:08:28;12.10;91.80
68691;DHT22;55675;49.588;8.640;2023-04-01T02:10:57;12.10;91.60
68691;DHT22;55675;49.588;8.640;2023-04-01T02:13:27;12.10;91.70
68691;DHT22;55675;49.588;8.640;2023-04-01T02:15:56;12.10;91.40
68691;DHT22;55675;49.588;8.640;2023-04-01T02:18:24;12.10;91.40
68691;DHT22;55675;49.588;8.640;2023-04-01T02:20:49;12.10;91.40
68691;DHT22;55675;49.588;8.640;2023-04-01T02:23:16;12.10;91.60
68691;DHT22;55675;49.588;8.640;2023-04-01T02:25:41;12.10;91.60
68691;DHT22;55675;49.588;8.640;2023-04-01T02:28:08;12.10;91.70
68691;DHT22;55675;49.588;8.640;2023-04-01T02:30:35;12.10;91.80
68691;DHT22;55675;49.588;8.640;2023-04-01T02:33:00;12.10;91.70
68691;DHT22;55675;49.588;8.640;2023-04-01T02:35:26;12.10;91.80
68691;DHT22;55675;49.588;8.640;2023-04-01T02:37:52;12.10;91.60
68691;DHT22;55675;49.588;8.640;2023-04-01T02:40:19;12.10;91.50
68691;DHT22;55675;49.588;8.640;2023-04-01T02:42:45;12.00;91.40
68691;DHT22;55675;49.588;8.640;2023-04-01T02:45:11;12.00;91.50
68691;DHT22;55675;49.588;8.640;2023-04-01T02:47:37;12.10;91.50
68691;DHT22;55675;49.588;8.640;2023-04-01T02:50:02;12.10;91.70
68691;DHT22;55675;49.588;8.640;2023-04-01T02:52:28;12.10;91.60
68691;DHT22;55675;49.588;8.640;2023-04-01T02:54:54;12.10;91.60
68691;DHT22;55675;49.588;8.640;2023-04-01T02:57:20;12.10;91.50
68691;DHT22;55675;49.588;8.640;2023-04-01T02:59:46;12.10;91.60
68691;DHT22;55675;49.588;8.640;2023-04-01T03:02:11;12.10;91.70
68691;DHT22;55675;49.588;8.640;2023-04-01T03:04:37;12.10;91.60
68691;DHT22;55675;49.588;8.640;2023-04-01T03:07:02;12.10;91.40
68691;DHT22;55675;49.588;8.640;2023-04-01T03:09:28;12.10;91.40
68691;DHT22;55675;49.588;8.640;2023-04-01T03:11:54;12.10;91.40
68691;DHT22;55675;49.588;8.640;2023-04-01T03:14:19;12.10;91.50
68691;DHT22;55675;49.588;8.640;2023-04-01T03:16:45;12.10;91.60
68691;DHT22;55675;49.588;8.640;2023-04-01T03:19:10;12.20;91.40
68691;DHT22;55675;49.588;8.640;2023-04-01T03:21:35;12.00;91.50
68691;DHT22;55675;49.588;8.640;2023-04-01T03:24:01;12.00;91.70
68691;DHT22;55675;49.588;8.640;2023-04-01T03:26:26;12.00;91.60
68691;DHT22;55675;49.588;8.640;2023-04-01T03:28:52;12.10;91.70
68691;DHT22;55675;49.588;8.640;2023-04-01T03:31:18;12.00;91.80
68691;DHT22;55675;49.588;8.640;2023-04-01T03:33:43;12.00;91.70
68691;DHT22;55675;49.588;8.640;2023-04-01T03:36:09;12.00;91.80
68691;DHT22;55675;49.588;8.640;2023-04-01T03:38:34;12.00;91.90
68691;DHT22;55675;49.588;8.640;2023-04-01T03:41:00;12.00;91.70
68691;DHT22;55675;49.588;8.640;2023-04-01T03:43:25;12.00;92.00
68691;DHT22;55675;49.588;8.640;2023-04-01T03:45:51;12.00;92.00
68691;DHT22;55675;49.588;8.640;2023-04-01T03:48:17;11.90;92.00
68691;DHT22;55675;49.588;8.640;2023-04-01T03:50:43;11.90;92.10
68691;DHT22;55675;49.588;8.640;2023-04-01T03:53:09;11.90;92.10
68691;DHT22;55675;49.588;8.640;2023-04-01T03:55:35;12.00;92.70
68691;DHT22;55675;49.588;8.640;2023-04-01T03:58:01;11.90;92.30
68691;DHT22;55675;49.588;8.640;2023-04-01T04:00:28;11.90;92.30
68691;DHT22;55675;49.588;8.640;2023-04-01T04:02:53;11.90;92.20
68691;DHT22;55675;49.588;8.640;2023-04-01T04:05:20;11.90;92.30
68691;DHT22;55675;49.588;8.640;2023-04-01T04:07:46;11.90;92.30
68691;DHT22;55675;49.588;8.640;2023-04-01T04:10:11;11.90;92.40
68691;DHT22;55675;49.588;8.640;2023-04-01T04:12:37;11.90;92.30
68691;DHT22;55675;49.588;8.640;2023-04-01T04:15:02;12.00;92.30
68691;DHT22;55675;49.588;8.640;2023-04-01T04:17:28;11.90;92.20
68691;DHT22;55675;49.588;8.640;2023-04-01T04:19:53;12.00;92.00
68691;DHT22;55675;49.588;8.640;2023-04-01T04:22:19;11.90;91.70
68691;DHT22;55675;49.588;8.640;2023-04-01T04:24:44;12.00;91.80
68691;DHT22;55675;49.588;8.640;2023-04-01T04:27:10;12.00;91.90
68691;DHT22;55675;49.588;8.640;2023-04-01T04:29:35;12.00;91.70
68691;DHT22;55675;49.588;8.640;2023-04-01T04:32:01;12.00;91.80
68691;DHT22;55675;49.588;8.640;2023-04-01T04:34:26;12.00;91.70
68691;DHT22;55675;49.588;8.640;2023-04-01T04:36:52;12.00;91.70
68691;DHT22;55675;49.588;8.640;2023-04-01T04:39:17;12.00;91.50
68691;DHT22;55675;49.588;8.640;2023-04-01T04:41:42;12.00;91.50
68691;DHT22;55675;49.588;8.640;2023-04-01T04:44:08;12.00;91.40
68691;DHT22;55675;49.588;8.640;2023-04-01T04:46:33;12.00;91.40
68691;DHT22;55675;49.588;8.640;2023-04-01T04:48:59;12.00;91.40
68691;DHT22;55675;49.588;8.640;2023-04-01T04:51:25;12.00;91.10
68691;DHT22;55675;49.588;8.640;2023-04-01T04:53:50;12.10;91.10
68691;DHT22;55675;49.588;8.640;2023-04-01T04:56:19;12.10;91.20
68691;DHT22;55675;49.588;8.640;2023-04-01T04:58:45;12.10;91.00
68691;DHT22;55675;49.588;8.640;2023-04-01T05:01:11;12.10;91.20
68691;DHT22;55675;49.588;8.640;2023-04-01T05:03:37;12.10;91.20
68691;DHT22;55675;49.588;8.640;2023-04-01T05:06:03;12.10;91.40
68691;DHT22;55675;49.588;8.640;2023-04-01T05:08:28;12.10;91.50
68691;DHT22;55675;49.588;8.640;2023-04-01T05:10:54;12.00;91.70
68691;DHT22;55675;49.588;8.640;2023-04-01T05:13:19;12.00;91.80
68691;DHT22;55675;49.588;8.640;2023-04-01T05:15:45;12.00;91.90
68691;DHT22;55675;49.588;8.640;2023-04-01T05:18:10;11.90;92.10
68691;DHT22;55675;49.588;8.640;2023-04-01T05:20:36;11.90;92.20
68691;DHT22;55675;49.588;8.640;2023-04-01T05:23:01;11.90;92.20
68691;DHT22;55675;49.588;8.640;2023-04-01T05:25:26;11.90;92.40
68691;DHT22;55675;49.588;8.640;2023-04-01T05:27:52;11.90;92.50
68691;DHT22;55675;49.588;8.640;2023-04-01T05:30:18;11.90;92.50
68691;DHT22;55675;49.588;8.640;2023-04-01T05:32:43;11.90;92.90
68691;DHT22;55675;49.588;8.640;2023-04-01T05:35:09;11.90;92.70
68691;DHT22;55675;49.588;8.640;2023-04-01T05:37:35;11.90;92.70
68691;DHT22;55675;49.588;8.640;2023-04-01T05:40:01;11.90;92.70
68691;DHT22;55675;49.588;8.640;2023-04-01T05:42:27;11.90;92.90
68691;DHT22;55675;49.588;8.640;2023-04-01T05:44:53;11.80;93.00
68691;DHT22;55675;49.588;8.640;2023-04-01T05:47:18;11.90;93.10
68691;DHT22;55675;49.588;8.640;2023-04-01T05:49:43;11.90;93.30
68691;DHT22;55675;49.588;8.640;2023-04-01T05:52:09;11.90;93.30
68691;DHT22;55675;49.588;8.640;2023-04-01T05:54:34;11.90;93.30
68691;DHT22;55675;49.588;8.640;2023-04-01T05:57:00;12.00;93.20
68691;DHT22;55675;49.588;8.640;2023-04-01T05:59:25;12.00;93.20
68691;DHT22;55675;49.588;8.640;2023-04-01T06:01:51;12.00;93.30
68691;DHT22;55675;49.588;8.640;2023-04-01T06:04:17;12.00;93.60
68691;DHT22;55675;49.588;8.640;2023-04-01T06:06:42;12.00;93.20
68691;DHT22;55675;49.588;8.640;2023-04-01T06:09:15;12.00;93.20
68691;DHT22;55675;49.588;8.640;2023-04-01T06:11:46;11.90;93.00
68691;DHT22;55675;49.588;8.640;2023-04-01T06:14:19;12.00;93.10
68691;DHT22;55675;49.588;8.640;2023-04-01T06:24:30;12.00;93.10
68691;DHT22;55675;49.588;8.640;2023-04-01T06:32:21;11.90;93.20
68691;DHT22;55675;49.588;8.640;2023-04-01T06:34:51;11.90;93.10
68691;DHT22;55675;49.588;8.640;2023-04-01T06:45:30;12.00;93.20
68691;DHT22;55675;49.588;8.640;2023-04-01T06:50:43;12.00;93.00
68691;DHT22;55675;49.588;8.640;2023-04-01T06:53:12;12.00;92.80
68691;DHT22;55675;49.588;8.640;2023-04-01T06:55:42;12.00;93.00
68691;DHT22;55675;49.588;8.640;2023-04-01T07:00:46;12.00;92.70
68691;DHT22;55675;49.588;8.640;2023-04-01T07:05:58;12.10;92.80
68691;DHT22;55675;49.588;8.640;2023-04-01T07:08:26;12.10;92.80
68691;DHT22;55675;49.588;8.640;2023-04-01T07:10:58;12.10;92.70
68691;DHT22;55675;49.588;8.640;2023-04-01T07:13:28;12.20;92.50
68691;DHT22;55675;49.588;8.640;2023-04-01T07:15:56;12.20;92.30
68691;DHT22;55675;49.588;8.640;2023-04-01T07:18:25;12.10;92.20
68691;DHT22;55675;49.588;8.640;2023-04-01T07:20:53;12.20;92.20
68691;DHT22;55675;49.588;8.640;2023-04-01T07:23:21;12.30;92.20
68691;DHT22;55675;49.588;8.640;2023-04-01T07:25:48;12.30;92.20
68691;DHT22;55675;49.588;8.640;2023-04-01T07:28:16;12.30;92.00
68691;DHT22;55675;49.588;8.640;2023-04-01T07:38:51;12.30;92.40
68691;DHT22;55675;49.588;8.640;2023-04-01T07:41:32;12.30;92.20
68691;DHT22;55675;49.588;8.640;2023-04-01T07:44:12;12.30;92.40
68691;DHT22;55675;49.588;8.640;2023-04-01T07:51:58;12.40;92.80
68691;DHT22;55675;49.588;8.640;2023-04-01T07:54:31;12.40;92.70
68691;DHT22;55675;49.588;8.640;2023-04-01T08:07:02;12.50;92.90
68691;DHT22;55675;49.588;8.640;2023-04-01T08:15:03;12.70;92.70
68691;DHT22;55675;49.588;8.640;2023-04-01T08:20:05;12.70;92.90
68691;DHT22;55675;49.588;8.640;2023-04-01T08:22:38;12.70;92.70
68691;DHT22;55675;49.588;8.640;2023-04-01T08:25:05;12.80;92.60
68691;DHT22;55675;49.588;8.640;2023-04-01T08:27:39;12.70;92.90
68691;DHT22;55675;49.588;8.640;2023-04-01T08:30:19;12.80;92.90
68691;DHT22;55675;49.588;8.640;2023-04-01T08:32:48;12.80;93.00
68691;DHT22;55675;49.588;8.640;2023-04-01T08:35:20;12.80;93.00
68691;DHT22;55675;49.588;8.640;2023-04-01T08:37:46;12.70;93.70
68691;DHT22;55675;49.588;8.640;2023-04-01T08:45:09;12.50;94.40
68691;DHT22;55675;49.588;8.640;2023-04-01T08:55:25;12.40;95.30
68691;DHT22;55675;49.588;8.640;2023-04-01T09:00:38;12.40;95.00
68691;DHT22;55675;49.588;8.640;2023-04-01T09:03:28;12.40;95.20
68691;DHT22;55675;49.588;8.640;2023-04-01T09:06:06;12.40;95.10
68691;DHT22;55675;49.588;8.640;2023-04-01T09:11:23;12.40;95.40
68691;DHT22;55675;49.588;8.640;2023-04-01T09:14:13;12.40;95.40
68691;DHT22;55675;49.588;8.640;2023-04-01T09:19:24;12.40;95.40
68691;DHT22;55675;49.588;8.640;2023-04-01T09:32:18;12.50;95.70
68691;DHT22;55675;49.588;8.640;2023-04-01T09:34:54;12.50;95.60
68691;DHT22;55675;49.588;8.640;2023-04-01T09:37:21;12.50;95.70
68691;DHT22;55675;49.588;8.640;2023-04-01T09:42:38;12.50;95.70
68691;DHT22;55675;49.588;8.640;2023-04-01T09:47:55;12.50;95.60
68691;DHT22;55675;49.588;8.640;2023-04-01T09:53:21;12.60;95.90
68691;DHT22;55675;49.588;8.640;2023-04-01T09:56:16;12.60;95.70
68691;DHT22;55675;49.588;8.640;2023-04-01T10:06:49;12.80;95.50
68691;DHT22;55675;49.588;8.640;2023-04-01T10:10:00;12.70;95.80
68691;DHT22;55675;49.588;8.640;2023-04-01T10:17:23;12.80;96.40
68691;DHT22;55675;49.588;8.640;2023-04-01T10:25:05;12.80;96.50
68691;DHT22;55675;49.588;8.640;2023-04-01T10:30:36;12.80;96.40
68691;DHT22;55675;49.588;8.640;2023-04-01T10:36:08;12.80;96.20
68691;DHT22;55675;49.588;8.640;2023-04-01T10:44:07;12.80;96.20
68691;DHT22;55675;49.588;8.640;2023-04-01T11:02:35;12.90;96.50
68691;DHT22;55675;49.588;8.640;2023-04-01T11:19:09;12.90;97.70
68691;DHT22;55675;49.588;8.640;2023-04-01T11:21:46;12.90;97.60
68691;DHT22;55675;49.588;8.640;2023-04-01T11:24:21;12.90;98.00
68691;DHT22;55675;49.588;8.640;2023-04-01T11:27:14;12.90;98.00
68691;DHT22;55675;49.588;8.640;2023-04-01T11:35:19;12.90;98.30
68691;DHT22;55675;49.588;8.640;2023-04-01T11:43:08;12.80;98.40
68691;DHT22;55675;49.588;8.640;2023-04-01T11:48:24;12.80;98.50
68691;DHT22;55675;49.588;8.640;2023-04-01T11:51:16;12.90;98.60
68691;DHT22;55675;49.588;8.640;2023-04-01T11:59:09;12.90;98.70
68691;DHT22;55675;49.588;8.640;2023-04-01T12:01:44;12.90;98.50
68691;DHT22;55675;49.588;8.640;2023-04-01T12:09:44;12.90;98.50
68691;DHT22;55675;49.588;8.640;2023-04-01T12:15:11;13.00;98.30
68691;DHT22;55675;49.588;8.640;2023-04-01T12:17:42;13.00;98.20
68691;DHT22;55675;49.588;8.640;2023-04-01T12:25:13;13.10;96.90
68691;DHT22;55675;49.588;8.640;2023-04-01T12:27:48;13.10;96.50
68691;DHT22;55675;49.588;8.640;2023-04-01T12:30:22;13.20;95.70
68691;DHT22;55675;49.588;8.640;2023-04-01T12:35:24;13.30;95.20
68691;DHT22;55675;49.588;8.640;2023-04-01T12:38:03;13.30;94.80
68691;DHT22;55675;49.588;8.640;2023-04-01T12:48:47;13.30;93.80
68691;DHT22;55675;49.588;8.640;2023-04-01T13:01:52;13.50;93.40
68691;DHT22;55675;49.588;8.640;2023-04-01T13:04:32;13.50;92.90
68691;DHT22;55675;49.588;8.640;2023-04-01T13:12:51;13.70;92.60
68691;DHT22;55675;49.588;8.640;2023-04-01T13:15:30;13.80;92.40
68691;DHT22;55675;49.588;8.640;2023-04-01T13:23:24;13.80;91.90
68691;DHT22;55675;49.588;8.640;2023-04-01T13:28:32;13.70;91.60
68691;DHT22;55675;49.588;8.640;2023-04-01T13:33:27;13.60;91.30
68691;DHT22;55675;49.588;8.640;2023-04-01T13:36:08;13.60;91.60
68691;DHT22;55675;49.588;8.640;2023-04-01T13:41:14;13.50;92.20
68691;DHT22;55675;49.588;8.640;2023-04-01T13:43:54;13.40;92.60
68691;DHT22;55675;49.588;8.640;2023-04-01T13:46:32;13.30;92.80
68691;DHT22;55675;49.588;8.640;2023-04-01T13:49:13;13.30;92.70
68691;DHT22;55675;49.588;8.640;2023-04-01T13:57:02;13.30;92.60
68691;DHT22;55675;49.588;8.640;2023-04-01T14:05:00;13.40;92.60
68691;DHT22;55675;49.588;8.640;2023-04-01T14:07:36;13.50;92.20
68691;DHT22;55675;49.588;8.640;2023-04-01T14:13:00;13.50;91.90
68691;DHT22;55675;49.588;8.640;2023-04-01T14:26:52;13.40;91.70
68691;DHT22;55675;49.588;8.640;2023-04-01T14:29:31;13.40;91.90
68691;DHT22;55675;49.588;8.640;2023-04-01T14:47:50;13.50;91.40
68691;DHT22;55675;49.588;8.640;2023-04-01T14:50:29;13.50;92.00
68691;DHT22;55675;49.588;8.640;2023-04-01T14:53:13;13.50;91.70
68691;DHT22;55675;49.588;8.640;2023-04-01T14:58:08;13.50;92.00
68691;DHT22;55675;49.588;8.640;2023-04-01T15:00:41;13.50;91.60
68691;DHT22;55675;49.588;8.640;2023-04-01T15:05:46;13.50;91.10
68691;DHT22;55675;49.588;8.640;2023-04-01T15:08:26;13.60;90.40
68691;DHT22;55675;49.588;8.640;2023-04-01T15:10:55;13.60;90.90
68691;DHT22;55675;49.588;8.640;2023-04-01T15:18:53;13.60;91.50
68691;DHT22;55675;49.588;8.640;2023-04-01T15:23:46;13.60;91.80
68691;DHT22;55675;49.588;8.640;2023-04-01T15:26:18;13.60;92.00
68691;DHT22;55675;49.588;8.640;2023-04-01T15:31:13;13.50;92.20
68691;DHT22;55675;49.588;8.640;2023-04-01T15:39:09;13.40;92.90
68691;DHT22;55675;49.588;8.640;2023-04-01T15:41:41;13.40;92.80
68691;DHT22;55675;49.588;8.640;2023-04-01T15:44:32;13.40;93.00
68691;DHT22;55675;49.588;8.640;2023-04-01T15:47:00;13.30;92.70
68691;DHT22;55675;49.588;8.640;2023-04-01T15:49:42;13.20;92.60
68691;DHT22;55675;49.588;8.640;2023-04-01T15:57:50;12.70;94.30
68691;DHT22;55675;49.588;8.640;2023-04-01T16:00:25;12.50;94.50
68691;DHT22;55675;49.588;8.640;2023-04-01T16:03:02;12.40;94.80
68691;DHT22;55675;49.588;8.640;2023-04-01T16:21:19;12.70;93.90
68691;DHT22;55675;49.588;8.640;2023-04-01T16:23:55;12.70;94.50
68691;DHT22;55675;49.588;8.640;2023-04-01T16:26:25;12.70;93.80
68691;DHT22;55675;49.588;8.640;2023-04-01T16:29:03;12.60;94.10
68691;DHT22;55675;49.588;8.640;2023-04-01T16:31:38;12.50;94.00
68691;DHT22;55675;49.588;8.640;2023-04-01T16:34:17;12.40;94.90
68691;DHT22;55675;49.588;8.640;2023-04-01T16:39:41;12.40;95.40
68691;DHT22;55675;49.588;8.640;2023-04-01T16:42:12;12.50;95.40
68691;DHT22;55675;49.588;8.640;2023-04-01T16:44:44;12.60;95.30
68691;DHT22;55675;49.588;8.640;2023-04-01T16:47:12;12.70;95.10
68691;DHT22;55675;49.588;8.640;2023-04-01T16:49:42;12.70;94.60
68691;DHT22;55675;49.588;8.640;2023-04-01T17:02:09;12.80;93.20
68691;DHT22;55675;49.588;8.640;2023-04-01T17:15:29;12.80;93.10
68691;DHT22;55675;49.588;8.640;2023-04-01T17:18:06;12.80;92.70
68691;DHT22;55675;49.588;8.640;2023-04-01T17:20:45;12.80;91.90
68691;DHT22;55675;49.588;8.640;2023-04-01T17:23:20;12.80;92.10
68691;DHT22;55675;49.588;8.640;2023-04-01T17:28:46;12.80;91.70
68691;DHT22;55675;49.588;8.640;2023-04-01T17:33:59;12.80;92.00
68691;DHT22;55675;49.588;8.640;2023-04-01T17:36:32;12.90;91.90
68691;DHT22;55675;49.588;8.640;2023-04-01T17:44:43;12.90;91.20
68691;DHT22;55675;49.588;8.640;2023-04-01T18:05:30;12.70;90.60
68691;DHT22;55675;49.588;8.640;2023-04-01T18:12:59;12.70;90.80
68691;DHT22;55675;49.588;8.640;2023-04-01T18:15:31;12.70;90.70
68691;DHT22;55675;49.588;8.640;2023-04-01T18:23:27;12.70;90.60
68691;DHT22;55675;49.588;8.640;2023-04-01T18:26:02;12.80;91.00
68691;DHT22;55675;49.588;8.640;2023-04-01T18:28:45;12.80;91.00
68691;DHT22;55675;49.588;8.640;2023-04-01T18:31:17;12.80;91.00
68691;DHT22;55675;49.588;8.640;2023-04-01T18:36:35;12.90;90.90
68691;DHT22;55675;49.588;8.640;2023-04-01T18:44:30;12.80;91.00
68691;DHT22;55675;49.588;8.640;2023-04-01T18:49:28;12.70;90.70
68691;DHT22;55675;49.588;8.640;2023-04-01T18:51:57;12.70;90.50
68691;DHT22;55675;49.588;8.640;2023-04-01T18:54:26;12.60;90.80
68691;DHT22;55675;49.588;8.640;2023-04-01T18:56:58;12.60;91.00
68691;DHT22;55675;49.588;8.640;2023-04-01T18:59:29;12.50;91.30
68691;DHT22;55675;49.588;8.640;2023-04-01T19:07:22;12.40;91.40
68691;DHT22;55675;49.588;8.640;2023-04-01T19:09:51;12.40;91.50
68691;DHT22;55675;49.588;8.640;2023-04-01T19:14:50;12.30;91.80
68691;DHT22;55675;49.588;8.640;2023-04-01T19:17:26;12.30;91.80
68691;DHT22;55675;49.588;8.640;2023-04-01T19:20:09;12.30;92.40
68691;DHT22;55675;49.588;8.640;2023-04-01T19:28:19;12.40;92.20
68691;DHT22;55675;49.588;8.640;2023-04-01T19:30:49;12.40;92.40
68691;DHT22;55675;49.588;8.640;2023-04-01T19:36:09;12.40;92.50
68691;DHT22;55675;49.588;8.640;2023-04-01T19:38:37;12.50;92.60
68691;DHT22;55675;49.588;8.640;2023-04-01T19:41:29;12.50;92.60
68691;DHT22;55675;49.588;8.640;2023-04-01T19:56:22;12.50;93.30
68691;DHT22;55675;49.588;8.640;2023-04-01T20:01:50;12.50;93.50
68691;DHT22;55675;49.588;8.640;2023-04-01T20:04:17;12.40;93.50
68691;DHT22;55675;49.588;8.640;2023-04-01T20:11:59;12.40;93.80
68691;DHT22;55675;49.588;8.640;2023-04-01T20:19:43;12.30;94.20
68691;DHT22;55675;49.588;8.640;2023-04-01T20:22:16;12.30;94.40
68691;DHT22;55675;49.588;8.640;2023-04-01T20:24:47;12.20;94.40
68691;DHT22;55675;49.588;8.640;2023-04-01T20:29:47;12.20;94.60
68691;DHT22;55675;49.588;8.640;2023-04-01T20:32:30;12.20;94.70
68691;DHT22;55675;49.588;8.640;2023-04-01T20:37:34;12.20;95.10
68691;DHT22;55675;49.588;8.640;2023-04-01T20:42:57;12.10;95.10
68691;DHT22;55675;49.588;8.640;2023-04-01T20:50:52;12.10;95.30
68691;DHT22;55675;49.588;8.640;2023-04-01T20:58:28;12.00;95.80
68691;DHT22;55675;49.588;8.640;2023-04-01T21:24:23;11.90;95.80
68691;DHT22;55675;49.588;8.640;2023-04-01T21:27:01;12.00;95.90
68691;DHT22;55675;49.588;8.640;2023-04-01T21:32:07;11.90;95.90
68691;DHT22;55675;49.588;8.640;2023-04-01T21:50:07;12.00;95.90
68691;DHT22;55675;49.588;8.640;2023-04-01T21:52:38;12.00;95.90
68691;DHT22;55675;49.588;8.640;2023-04-01T22:00:25;12.00;96.00
68691;DHT22;55675;49.588;8.640;2023-04-01T22:03:14;12.00;96.20
68691;DHT22;55675;49.588;8.640;2023-04-01T22:08:51;12.00;96.30
68691;DHT22;55675;49.588;8.640;2023-04-01T22:11:23;11.90;96.20
68691;DHT22;55675;49.588;8.640;2023-04-01T22:16:44;11.90;96.40
68691;DHT22;55675;49.588;8.640;2023-04-01T22:19:16;11.90;96.40
68691;DHT22;55675;49.588;8.640;2023-04-01T22:24:32;11.90;96.40
68691;DHT22;55675;49.588;8.640;2023-04-01T22:27:03;11.90;96.50
68691;DHT22;55675;49.588;8.640;2023-04-01T22:32:15;11.90;96.50
68691;DHT22;55675;49.588;8.640;2023-04-01T22:37:17;11.90;96.60
68691;DHT22;55675;49.588;8.640;2023-04-01T22:52:38;12.00;96.60
68691;DHT22;55675;49.588;8.640;2023-04-01T22:55:16;12.00;96.60
68691;DHT22;55675;49.588;8.640;2023-04-01T22:57:47;12.00;96.50
68691;DHT22;55675;49.588;8.640;2023-04-01T23:00:23;12.00;96.50
68691;DHT22;55675;49.588;8.640;2023-04-01T23:03:00;12.00;96.60
68691;DHT22;55675;49.588;8.640;2023-04-01T23:05:28;12.00;96.60
68691;DHT22;55675;49.588;8.640;2023-04-01T23:13:04;12.00;96.90
68691;DHT22;55675;49.588;8.640;2023-04-01T23:15:30;11.90;97.00
68691;DHT22;55675;49.588;8.640;2023-04-01T23:18:05;11.90;97.00
68691;DHT22;55675;49.588;8.640;2023-04-01T23:23:33;11.90;97.10
68691;DHT22;55675;49.588;8.640;2023-04-01T23:26:11;11.90;97.20
68691;DHT22;55675;49.588;8.640;2023-04-01T23:28:40;11.90;97.20
68691;DHT22;55675;49.588;8.640;2023-04-01T23:34:00;11.80;97.30
68691;DHT22;55675;49.588;8.640;2023-04-01T23:36:27;11.90;97.40
68691;DHT22;55675;49.588;8.640;2023-04-01T23:38:53;11.80;97.40
68691;DHT22;55675;49.588;8.640;2023-04-01T23:41:26;11.80;97.50
68691;DHT22;55675;49.588;8.640;2023-04-01T23:43:58;11.80;97.50
68691;DHT22;55675;49.588;8.640;2023-04-01T23:46:24;11.80;97.50
68691;DHT22;55675;49.588;8.640;2023-04-01T23:48:50;11.80;97.50
68691;DHT22;55675;49.588;8.640;2023-04-01T23:51:20;11.80;97.50
68691;DHT22;55675;49.588;8.640;2023-04-01T23:53:48;11.80;97.50
68691;DHT22;55675;49.588;8.640;2023-04-01T23:56:20;11.80;97.60
68691;DHT22;55675;49.588;8.640;2023-04-01T23:58:50;11.80;97.60
